Terminal Aerodrome Forecast
Issued by NWS Cleveland, OH

Home | Current Version | Previous Version | Text Only | Print | Product List | Glossary On
Versions: 1 2 3 4 5 6 7 8 9 10 11 12 13 14 15 16 17 18 19 20 21 22 23
000
FTUS41 KCLE 030400 AAA
TAFTOL
TAF AMD
KTOL 030425Z 0304/0324 32006KT 4SM BR SCT250
      TEMPO 0304/0308 1SM BR
     FM030800 VRB03KT 3SM BR SKC
      TEMPO 0308/0312 1SM BR
     FM031200 VRB03KT 1SM BR SKC
      TEMPO 0312/0313 1SM BR
     FM031300 20006KT P6SM SKC=

USA.gov is the U.S. government's official web portal to all federal, state and local government web resources and services.